Time;durP1;ratioP1;P1;durP2;ratioP2;P2;SDS_P1;SDS_P2;PMS_P1;PMS_P2;Temp;Humidity;BMP_temperature;BMP_pressure;BME280_temperature;BME280_humidity;BME280_pressure;Samples;Min_cycle;Max_cycle;Signal;HPM_P1;HPM_P2
2021/10/25 00:02:20;;;;;;;29.27;12.48;;;1.30;99.90;;;;;;5028548;28;20078;-74
2021/10/25 00:04:46;;;;;;;25.17;12.40;;;1.30;99.90;;;;;;5030494;28;20112;-74
2021/10/25 00:07:11;;;;;;;30.15;14.18;;;1.30;99.90;;;;;;5030462;28;20037;-75
2021/10/25 00:09:37;;;;;;;37.45;16.23;;;1.20;99.90;;;;;;5028256;28;20052;-74
2021/10/25 00:12:03;;;;;;;32.40;13.27;;;1.10;99.90;;;;;;5028926;28;20448;-75
2021/10/25 00:14:29;;;;;;;23.13;12.15;;;1.10;99.90;;;;;;5030121;28;20029;-74
2021/10/25 00:16:55;;;;;;;25.83;12.48;;;1.10;99.90;;;;;;5028534;28;20476;-75
2021/10/25 00:19:21;;;;;;;18.48;11.57;;;1.10;99.90;;;;;;5030057;28;20033;-74
2021/10/25 00:21:48;;;;;;;21.08;11.63;;;1.00;99.90;;;;;;5028937;28;20422;-75
2021/10/25 00:24:14;;;;;;;20.35;11.55;;;1.00;99.90;;;;;;5025690;28;20056;-74
2021/10/25 00:26:40;;;;;;;20.50;12.05;;;1.00;99.90;;;;;;5027214;28;20029;-75
2021/10/25 00:29:06;;;;;;;20.25;12.05;;;1.00;99.90;;;;;;5028996;28;20024;-75
2021/10/25 00:31:32;;;;;;;21.58;12.23;;;0.90;99.90;;;;;;5028534;28;20025;-74
2021/10/25 00:33:58;;;;;;;29.42;14.68;;;0.80;99.90;;;;;;5024724;28;20514;-74
2021/10/25 00:36:23;;;;;;;24.73;12.98;;;0.80;99.90;;;;;;5029083;28;20029;-74
2021/10/25 00:38:49;;;;;;;23.42;11.95;;;0.80;99.90;;;;;;5028875;28;20076;-74
2021/10/25 00:41:15;;;;;;;21.60;12.27;;;0.80;99.90;;;;;;5027818;28;20020;-77
2021/10/25 00:43:41;;;;;;;25.55;12.93;;;0.80;99.90;;;;;;5028804;28;20021;-76
2021/10/25 00:46:08;;;;;;;25.83;11.32;;;0.80;99.90;;;;;;5022698;28;20075;-76
2021/10/25 00:48:34;;;;;;;19.23;11.18;;;0.70;99.90;;;;;;5025915;28;20028;-73
2021/10/25 00:51:02;;;;;;;19.98;12.00;;;0.80;99.90;;;;;;5027073;28;20022;-74
2021/10/25 00:53:27;;;;;;;20.83;11.15;;;0.70;99.90;;;;;;5029932;28;20129;-73
2021/10/25 00:55:53;;;;;;;20.75;10.68;;;0.70;99.90;;;;;;5027382;28;20511;-74
2021/10/25 00:58:19;;;;;;;23.20;11.63;;;0.60;99.90;;;;;;5027252;28;20061;-74
2021/10/25 01:00:45;;;;;;;18.13;10.68;;;0.60;99.90;;;;;;5027873;28;20482;-73
2021/10/25 01:03:11;;;;;;;27.35;12.57;;;0.50;99.90;;;;;;5025304;28;20057;-74
2021/10/25 01:05:37;;;;;;;22.10;12.45;;;0.40;99.90;;;;;;5022167;28;20033;-73
2021/10/25 01:08:04;;;;;;;22.45;12.32;;;0.40;99.90;;;;;;5022070;28;20434;-74
2021/10/25 01:10:30;;;;;;;19.98;12.95;;;0.30;99.90;;;;;;5024202;28;20027;-76
2021/10/25 01:12:57;;;;;;;23.80;12.73;;;0.30;99.90;;;;;;5027845;28;20025;-76
2021/10/25 01:15:24;;;;;;;22.83;11.98;;;0.30;99.90;;;;;;5029351;28;20014;-75
2021/10/25 01:17:57;;;;;;;21.73;10.88;;;0.40;99.90;;;;;;5027438;28;20037;-75
2021/10/25 01:20:24;;;;;;;28.23;14.80;;;0.50;99.90;;;;;;5024208;28;20076;-76
2021/10/25 01:22:50;;;;;;;24.80;11.73;;;0.50;99.90;;;;;;5022805;28;20040;-76
2021/10/25 01:25:16;;;;;;;27.08;11.13;;;0.60;99.90;;;;;;5019678;28;20029;-75
2021/10/25 01:27:42;;;;;;;17.42;10.65;;;0.60;99.90;;;;;;5025766;28;20483;-76
2021/10/25 01:30:08;;;;;;;17.27;11.57;;;0.50;99.90;;;;;;5028076;28;20112;-76
2021/10/25 01:32:34;;;;;;;16.98;11.13;;;0.40;99.90;;;;;;5026087;28;20053;-75
2021/10/25 01:35:00;;;;;;;21.05;10.57;;;0.30;99.90;;;;;;5027760;28;20056;-75
2021/10/25 01:37:26;;;;;;;23.45;11.95;;;0.20;99.90;;;;;;5027921;28;20033;-77
2021/10/25 01:39:52;;;;;;;20.02;10.60;;;0.10;99.90;;;;;;5020189;28;20025;-76
2021/10/25 01:42:18;;;;;;;18.95;11.25;;;0.10;99.90;;;;;;5027900;28;20027;-76
2021/10/25 01:44:44;;;;;;;20.00;11.18;;;0.00;99.90;;;;;;5021751;28;20430;-77
2021/10/25 01:47:09;;;;;;;19.92;11.07;;;0.00;99.90;;;;;;5026993;28;20386;-77
2021/10/25 01:49:35;;;;;;;16.00;10.23;;;-0.10;99.90;;;;;;5027450;28;20033;-76
2021/10/25 01:52:01;;;;;;;22.42;11.52;;;-0.20;99.90;;;;;;5028142;28;20028;-76
2021/10/25 01:54:27;;;;;;;20.92;10.80;;;-0.20;99.90;;;;;;5028303;28;20383;-76
2021/10/25 01:56:53;;;;;;;20.00;11.07;;;-0.30;99.90;;;;;;5027653;28;20041;-76
2021/10/25 01:59:19;;;;;;;21.23;11.40;;;-0.30;99.90;;;;;;5026944;28;20018;-76
2021/10/25 02:01:45;;;;;;;17.23;9.95;;;-0.30;99.90;;;;;;5028757;28;20033;-76
2021/10/25 02:04:11;;;;;;;15.95;10.43;;;-0.30;99.90;;;;;;5025761;28;20032;-75
2021/10/25 02:06:37;;;;;;;15.93;11.48;;;-0.40;99.90;;;;;;5025124;28;20014;-75
2021/10/25 02:09:04;;;;;;;24.73;12.27;;;-0.40;99.90;;;;;;5022909;28;20033;-76
2021/10/25 02:11:30;;;;;;;19.58;10.38;;;-0.40;99.90;;;;;;5026093;28;20025;-75
2021/10/25 02:13:55;;;;;;;17.23;10.15;;;-0.50;99.90;;;;;;5026761;28;20071;-75
2021/10/25 02:16:21;;;;;;;22.15;10.60;;;-0.50;99.90;;;;;;5027700;28;20434;-76
2021/10/25 02:18:47;;;;;;;15.98;10.43;;;-0.50;99.90;;;;;;5024420;28;20022;-75
2021/10/25 02:21:13;;;;;;;17.08;9.80;;;-0.60;99.90;;;;;;5020154;28;20064;-77
2021/10/25 02:23:38;;;;;;;17.63;9.90;;;-0.60;99.90;;;;;;5028282;28;20068;-75
2021/10/25 02:26:04;;;;;;;21.55;10.02;;;-0.60;99.90;;;;;;5027049;28;20356;-76
2021/10/25 02:28:33;;;;;;;16.13;9.75;;;-0.70;99.90;;;;;;5026332;28;20010;-76
2021/10/25 02:30:59;;;;;;;16.70;11.45;;;-0.70;99.90;;;;;;5025230;28;20534;-76
2021/10/25 02:33:25;;;;;;;16.40;10.50;;;-0.70;99.90;;;;;;5023614;28;20029;-76
2021/10/25 02:35:51;;;;;;;26.60;11.48;;;-0.80;99.90;;;;;;5026785;28;20506;-76
2021/10/25 02:38:17;;;;;;;15.60;9.38;;;-0.80;99.90;;;;;;5023533;28;20020;-76
2021/10/25 02:40:43;;;;;;;17.00;10.82;;;-0.90;99.90;;;;;;5019372;28;20407;-77
2021/10/25 02:43:09;;;;;;;24.42;10.05;;;-0.80;99.90;;;;;;5022059;28;20010;-76
2021/10/25 02:45:35;;;;;;;17.75;10.20;;;-0.90;99.90;;;;;;5024933;28;20021;-76
2021/10/25 02:48:01;;;;;;;31.70;12.13;;;-0.90;99.90;;;;;;5025615;28;20041;-76
2021/10/25 02:50:27;;;;;;;31.23;10.57;;;-0.90;99.90;;;;;;5026866;28;20033;-76
2021/10/25 02:52:53;;;;;;;32.72;11.68;;;-0.90;99.90;;;;;;5024491;28;20026;-76
2021/10/25 02:55:18;;;;;;;13.65;8.75;;;-0.90;99.90;;;;;;5026227;28;20454;-76
2021/10/25 02:57:44;;;;;;;13.98;9.80;;;-0.90;99.90;;;;;;5025747;28;20033;-76
2021/10/25 03:00:13;;;;;;;19.42;9.30;;;-1.00;99.90;;;;;;5025664;28;20717;-75
2021/10/25 03:02:40;;;;;;;16.50;8.43;;;-1.00;99.90;;;;;;5026537;28;20029;-75
2021/10/25 03:05:06;;;;;;;17.13;9.88;;;-1.00;99.90;;;;;;5028386;28;20386;-75
2021/10/25 03:07:33;;;;;;;17.20;9.02;;;-1.10;99.90;;;;;;5030442;28;20022;-75
2021/10/25 03:09:59;;;;;;;14.25;9.13;;;-1.10;99.90;;;;;;5028272;28;20014;-75
2021/10/25 03:12:26;;;;;;;17.55;8.90;;;-1.10;99.90;;;;;;5023386;28;20017;-76
2021/10/25 03:14:53;;;;;;;19.15;10.65;;;-1.10;99.90;;;;;;5028328;28;20021;-75
2021/10/25 03:17:19;;;;;;;14.50;9.18;;;-1.10;99.90;;;;;;5020974;28;20033;-76
2021/10/25 03:19:45;;;;;;;28.35;11.55;;;-1.10;99.90;;;;;;5031113;28;20021;-76
2021/10/25 03:22:12;;;;;;;17.88;9.98;;;-1.10;99.90;;;;;;5029589;28;20018;-75
2021/10/25 03:24:39;;;;;;;18.23;9.23;;;-1.10;99.90;;;;;;5025894;28;20036;-75
2021/10/25 03:27:04;;;;;;;31.55;8.82;;;-1.00;99.90;;;;;;5025333;28;20018;-76
2021/10/25 03:29:30;;;;;;;16.42;7.97;;;-1.00;99.90;;;;;;5027706;28;20032;-75
2021/10/25 03:31:56;;;;;;;17.75;9.18;;;-1.10;99.90;;;;;;5024133;28;20106;-75
2021/10/25 03:34:22;;;;;;;14.63;9.38;;;-1.10;99.90;;;;;;5027248;28;20097;-75
2021/10/25 03:36:49;;;;;;;13.48;8.77;;;-1.10;99.90;;;;;;5029020;28;20372;-75
2021/10/25 03:39:19;;;;;;;14.75;8.90;;;-1.10;99.90;;;;;;5026380;28;20079;-75
2021/10/25 03:41:47;;;;;;;15.48;10.15;;;-1.10;99.90;;;;;;5028990;28;20014;-75
2021/10/25 03:44:26;;;;;;;10.57;7.57;;;-1.10;99.90;;;;;;5028417;28;20025;-75
2021/10/25 03:47:07;;;;;;;14.30;8.43;;;-1.10;99.90;;;;;;5025894;28;20479;-76
2021/10/25 03:49:43;;;;;;;20.92;9.60;;;-1.10;99.90;;;;;;5027698;28;20060;-75
2021/10/25 03:52:18;;;;;;;19.13;9.30;;;-1.10;99.90;;;;;;5024882;28;20116;-75
2021/10/25 03:54:53;;;;;;;14.85;8.55;;;-1.10;99.90;;;;;;5028999;28;20045;-75
2021/10/25 04:13:46;;;;;;;17.67;9.07;;;-1.10;99.90;;;;;;5028239;28;20423;-75
2021/10/25 04:25:24;;;;;;;14.18;8.23;;;-1.10;99.90;;;;;;5029622;28;20068;-75
2021/10/25 04:27:22;;;;;;;16.75;9.48;;;-1.10;99.90;;;;;;5028045;28;20494;-75
2021/10/25 04:29:52;;;;;;;20.45;9.93;;;-1.10;99.90;;;;;;5022130;28;20159;-75
2021/10/25 04:32:17;;;;;;;18.75;9.65;;;-1.10;99.90;;;;;;5027936;28;20024;-75
2021/10/25 04:34:43;;;;;;;25.33;10.50;;;-1.00;99.90;;;;;;5024022;28;20461;-75
2021/10/25 04:37:09;;;;;;;19.88;10.73;;;-1.00;99.90;;;;;;5027792;28;20032;-76
2021/10/25 04:39:35;;;;;;;15.32;10.02;;;-1.00;99.90;;;;;;5027311;28;20041;-75
2021/10/25 04:42:00;;;;;;;17.75;10.65;;;-1.00;99.90;;;;;;5028457;28;20425;-76
2021/10/25 04:44:26;;;;;;;16.52;9.38;;;-1.00;99.90;;;;;;5023570;28;20029;-75
2021/10/25 04:46:52;;;;;;;16.67;9.63;;;-1.10;99.90;;;;;;5029107;28;20038;-75
2021/10/25 04:49:18;;;;;;;31.98;11.75;;;-1.00;99.90;;;;;;5026901;28;20087;-75
2021/10/25 04:51:44;;;;;;;22.88;10.55;;;-1.00;99.90;;;;;;5025838;28;20447;-76
2021/10/25 04:54:10;;;;;;;16.38;9.70;;;-1.10;99.90;;;;;;5022573;28;20141;-75
2021/10/25 04:56:35;;;;;;;23.65;10.23;;;-1.20;99.90;;;;;;5027450;28;20523;-76
2021/10/25 04:59:01;;;;;;;19.00;10.65;;;-1.20;99.90;;;;;;5024840;28;20040;-75
2021/10/25 05:01:27;;;;;;;24.38;11.63;;;-1.20;99.90;;;;;;5027102;28;20681;-75
2021/10/25 05:03:52;;;;;;;22.27;9.10;;;-1.20;99.90;;;;;;5040603;28;20037;-75
2021/10/25 05:06:18;;;;;;;17.85;10.00;;;-1.20;99.90;;;;;;5025331;28;20032;-75
2021/10/25 05:08:47;;;;;;;21.13;9.30;;;-1.30;99.90;;;;;;5024924;28;20021;-75
2021/10/25 05:11:14;;;;;;;16.60;9.13;;;-1.30;99.90;;;;;;5017998;28;20029;-75
2021/10/25 05:13:40;;;;;;;17.20;8.80;;;-1.30;99.90;;;;;;5024837;28;20017;-75
2021/10/25 05:16:07;;;;;;;16.08;9.00;;;-1.40;99.90;;;;;;5021462;28;20202;-75
2021/10/25 05:18:33;;;;;;;15.43;9.50;;;-1.40;99.90;;;;;;5024968;28;20100;-75
2021/10/25 05:20:58;;;;;;;18.38;9.60;;;-1.40;99.90;;;;;;5027756;28;20164;-76
2021/10/25 05:23:26;;;;;;;24.05;11.13;;;-1.40;99.90;;;;;;5025030;28;20349;-75
2021/10/25 05:25:51;;;;;;;28.17;11.95;;;-1.50;99.90;;;;;;5020121;28;20104;-76
2021/10/25 05:28:17;;;;;;;24.98;11.18;;;-1.50;99.90;;;;;;5015405;28;20113;-79
2021/10/25 05:30:44;;;;;;;20.17;10.50;;;-1.50;99.90;;;;;;5020468;28;20017;-79
2021/10/25 05:33:10;;;;;;;18.17;9.93;;;-1.50;99.90;;;;;;5020120;28;20028;-79
2021/10/25 05:35:38;;;;;;;19.15;10.27;;;-1.50;99.90;;;;;;5017191;28;20357;-79
2021/10/25 05:38:04;;;;;;;19.67;10.35;;;-1.50;99.90;;;;;;5019598;28;20029;-81
2021/10/25 05:40:30;;;;;;;17.33;10.30;;;-1.60;99.90;;;;;;5029159;28;20613;-79
2021/10/25 05:42:56;;;;;;;25.73;13.20;;;-1.50;99.90;;;;;;5022261;28;20056;-79
2021/10/25 05:45:22;;;;;;;24.80;13.40;;;-1.50;99.90;;;;;;5024718;28;20057;-79
2021/10/25 05:47:48;;;;;;;18.92;12.55;;;-1.50;99.90;;;;;;5027683;28;20044;-79
2021/10/25 05:50:14;;;;;;;25.50;13.38;;;-1.50;99.90;;;;;;5022259;28;20033;-80
2021/10/25 05:52:40;;;;;;;23.58;13.88;;;-1.40;99.90;;;;;;5023417;28;20060;-79
2021/10/25 05:55:06;;;;;;;29.30;13.55;;;-1.40;99.90;;;;;;5014241;28;20030;-80
2021/10/25 05:57:32;;;;;;;20.90;11.73;;;-1.40;99.90;;;;;;5019255;28;20034;-80
2021/10/25 05:59:58;;;;;;;23.75;11.52;;;-1.40;99.90;;;;;;5024117;28;20461;-80
2021/10/25 06:02:28;;;;;;;21.55;11.32;;;-1.30;99.90;;;;;;5016463;28;20060;-79
2021/10/25 06:04:54;;;;;;;26.60;11.85;;;-1.30;99.90;;;;;;5018444;28;20018;-79
2021/10/25 06:07:19;;;;;;;18.23;11.35;;;-1.30;99.90;;;;;;5016171;28;20395;-79
2021/10/25 06:09:45;;;;;;;18.48;11.05;;;-1.30;99.90;;;;;;5018662;28;20030;-80
2021/10/25 06:12:16;;;;;;;20.50;10.65;;;-1.20;99.90;;;;;;5016693;28;20424;-80
2021/10/25 06:14:44;;;;;;;23.75;13.80;;;-1.20;99.90;;;;;;5016967;28;20052;-79
2021/10/25 06:17:38;;;;;;;24.45;13.93;;;-1.10;99.90;;;;;;5022736;28;20033;-80
2021/10/25 06:20:04;;;;;;;26.92;13.98;;;-1.00;99.90;;;;;;5016725;28;20104;-79
2021/10/25 06:22:35;;;;;;;32.80;16.13;;;-0.90;99.90;;;;;;5011624;28;20022;-79
2021/10/25 06:25:01;;;;;;;39.00;19.50;;;-0.80;99.90;;;;;;5011483;28;20080;-79
2021/10/25 06:27:27;;;;;;;48.45;19.92;;;-0.70;99.90;;;;;;5012929;28;20152;-79
2021/10/25 06:29:52;;;;;;;52.22;23.73;;;-0.60;99.90;;;;;;5019205;28;20037;-80
2021/10/25 06:32:18;;;;;;;59.40;28.77;;;-0.50;99.90;;;;;;5014390;28;20026;-80
2021/10/25 06:34:47;;;;;;;35.70;16.30;;;-0.40;99.90;;;;;;5025534;28;20030;-80
2021/10/25 06:37:13;;;;;;;20.05;12.43;;;-0.20;99.90;;;;;;5030257;28;20037;-79
2021/10/25 06:39:40;;;;;;;23.17;12.85;;;-0.10;99.90;;;;;;5022634;28;20124;-79
2021/10/25 06:42:07;;;;;;;17.33;10.40;;;0.20;99.90;;;;;;5025941;28;20025;-79
2021/10/25 06:44:38;;;;;;;19.85;11.60;;;0.40;99.90;;;;;;5036165;28;20545;-79
2021/10/25 06:47:03;;;;;;;22.10;12.40;;;0.60;99.90;;;;;;5034783;28;20112;-79
2021/10/25 06:49:29;;;;;;;32.67;16.75;;;0.80;99.90;;;;;;5029322;28;20559;-80
2021/10/25 06:51:56;;;;;;;46.10;21.10;;;1.00;99.90;;;;;;5023467;28;20032;-78
2021/10/25 06:54:21;;;;;;;43.47;21.13;;;1.10;99.90;;;;;;5024053;28;20021;-78
2021/10/25 06:56:47;;;;;;;53.85;24.00;;;1.30;99.90;;;;;;5024940;28;20032;-78
2021/10/25 06:59:13;;;;;;;65.15;27.80;;;1.40;99.90;;;;;;5024996;28;20060;-77
2021/10/25 07:01:38;;;;;;;64.85;28.90;;;1.40;99.90;;;;;;5025256;28;20029;-78
2021/10/25 07:04:04;;;;;;;48.30;21.77;;;1.60;99.90;;;;;;5023007;28;20082;-78
2021/10/25 07:06:32;;;;;;;35.63;16.63;;;1.70;99.90;;;;;;5026103;28;20030;-78
2021/10/25 07:08:58;;;;;;;27.38;14.50;;;1.90;99.90;;;;;;5020347;28;20034;-78
2021/10/25 07:11:23;;;;;;;22.60;11.55;;;2.10;99.90;;;;;;5016009;28;20018;-78
2021/10/25 07:13:51;;;;;;;19.13;10.43;;;2.40;99.90;;;;;;5025546;28;20029;-78
2021/10/25 07:16:28;;;;;;;22.20;11.05;;;2.70;99.90;;;;;;5015644;28;20468;-78
2021/10/25 07:21:41;;;;;;;19.88;10.15;;;3.10;99.90;;;;;;5025804;28;20355;-78
2021/10/25 08:10:42;;;;;;;10.70;6.28;;;6.20;89.80;;;;;;5023006;28;20553;-78
2021/10/25 08:13:16;;;;;;;13.23;7.60;;;6.30;88.90;;;;;;5026147;28;20024;-78
2021/10/25 08:15:47;;;;;;;19.17;9.32;;;6.40;88.40;;;;;;5033787;28;20025;-78
2021/10/25 08:20:48;;;;;;;12.90;7.05;;;6.70;88.00;;;;;;5015962;28;20040;-78
2021/10/25 08:23:14;;;;;;;12.00;8.05;;;6.80;87.60;;;;;;5022363;28;20025;-79
2021/10/25 08:25:40;;;;;;;10.82;7.40;;;6.90;87.10;;;;;;5032586;28;20434;-79
2021/10/25 08:28:05;;;;;;;15.77;8.70;;;7.00;87.70;;;;;;5023251;28;20049;-79
2021/10/25 08:30:31;;;;;;;12.80;8.70;;;7.10;84.50;;;;;;5024241;28;20057;-80
2021/10/25 08:35:58;;;;;;;14.95;7.25;;;7.40;79.20;;;;;;5015683;28;20084;-79
2021/10/25 08:41:08;;;;;;;12.63;7.15;;;7.60;74.10;;;;;;5015609;28;20095;-78
2021/10/25 08:43:34;;;;;;;12.35;6.75;;;7.80;74.10;;;;;;5027234;28;20497;-79
2021/10/25 08:46:05;;;;;;;11.82;7.15;;;7.80;72.80;;;;;;5029554;28;20028;-79
2021/10/25 08:48:30;;;;;;;9.82;6.30;;;7.90;71.90;;;;;;5031966;28;20022;-79
2021/10/25 08:51:00;;;;;;;10.98;6.53;;;8.00;72.50;;;;;;5030140;28;20079;-78
2021/10/25 08:53:25;;;;;;;10.00;5.88;;;8.10;72.40;;;;;;5026272;28;20482;-78
2021/10/25 08:55:51;;;;;;;7.07;4.80;;;8.10;70.20;;;;;;5031395;28;20028;-79
2021/10/25 08:58:18;;;;;;;9.57;5.72;;;8.30;68.40;;;;;;5031491;28;20025;-79
2021/10/25 09:00:50;;;;;;;7.95;4.60;;;8.30;67.20;;;;;;5027781;28;20025;-79
2021/10/25 09:03:17;;;;;;;11.85;5.47;;;8.40;65.00;;;;;;5019426;28;20116;-78
2021/10/25 09:05:57;;;;;;;12.27;6.05;;;8.50;64.60;;;;;;5033494;28;20517;-80
2021/10/25 09:08:24;;;;;;;12.07;5.68;;;8.50;65.60;;;;;;5032646;28;20036;-79
2021/10/25 09:10:50;;;;;;;7.25;4.90;;;8.60;64.10;;;;;;5032079;28;20072;-79
2021/10/25 09:13:24;;;;;;;13.25;5.70;;;8.70;62.80;;;;;;5023951;28;20018;-80
2021/10/25 09:15:54;;;;;;;6.80;5.20;;;8.80;63.00;;;;;;5022359;28;20029;-81
2021/10/25 09:18:31;;;;;;;6.13;4.95;;;8.80;63.90;;;;;;5031438;28;20045;-80
2021/10/25 09:21:05;;;;;;;10.68;4.72;;;8.90;64.90;;;;;;5031180;28;20021;-80
2021/10/25 09:23:42;;;;;;;7.93;3.97;;;8.90;62.10;;;;;;5020515;28;20494;-80
2021/10/25 09:26:11;;;;;;;7.55;4.43;;;9.00;61.10;;;;;;5014745;28;20048;-80
2021/10/25 09:28:40;;;;;;;11.52;5.20;;;9.00;60.20;;;;;;5027792;28;20575;-80
2021/10/25 09:31:12;;;;;;;7.57;4.40;;;9.10;59.50;;;;;;5014608;28;20495;-80
2021/10/25 09:33:40;;;;;;;17.30;7.10;;;9.20;60.70;;;;;;5013700;28;20091;-80
2021/10/25 09:36:14;;;;;;;8.38;4.18;;;9.30;62.40;;;;;;5012285;28;20021;-80
2021/10/25 09:49:14;;;;;;;14.57;9.18;;;9.80;63.40;;;;;;5011337;28;20033;-77
2021/10/25 09:51:54;;;;;;;13.43;9.43;;;9.90;62.50;;;;;;5013384;28;20026;-78
2021/10/25 09:54:24;;;;;;;11.82;6.78;;;9.90;62.60;;;;;;5021285;28;20108;-78
2021/10/25 09:57:08;;;;;;;13.20;7.82;;;10.00;61.80;;;;;;5025659;28;20107;-78
2021/10/25 09:59:53;;;;;;;11.05;7.65;;;10.10;64.00;;;;;;5027309;28;20487;-78
2021/10/25 10:02:23;;;;;;;12.73;6.90;;;10.10;63.90;;;;;;5029914;28;20044;-79
2021/10/25 10:04:59;;;;;;;9.32;6.25;;;10.20;63.70;;;;;;5019568;28;20045;-79
2021/10/25 10:07:28;;;;;;;13.60;6.10;;;10.20;62.30;;;;;;5009976;28;20072;-79
2021/10/25 10:09:54;;;;;;;15.10;6.88;;;10.30;63.10;;;;;;5011092;28;20080;-78
2021/10/25 10:12:21;;;;;;;11.20;6.22;;;10.40;63.50;;;;;;5011572;28;20044;-79
2021/10/25 10:14:52;;;;;;;15.80;10.00;;;10.40;62.80;;;;;;5013728;28;20431;-79
2021/10/25 10:17:42;;;;;;;10.40;5.93;;;10.50;62.60;;;;;;5015392;28;20045;-79
2021/10/25 10:20:32;;;;;;;7.88;5.20;;;10.50;60.60;;;;;;5010165;28;20032;-79
2021/10/25 10:23:03;;;;;;;13.18;6.45;;;10.60;59.10;;;;;;5015351;28;20026;-79
2021/10/25 10:25:30;;;;;;;10.52;4.75;;;10.60;58.70;;;;;;5014158;28;20045;-79
2021/10/25 10:28:12;;;;;;;8.93;4.22;;;10.70;57.70;;;;;;5014807;28;20034;-79
2021/10/25 10:30:57;;;;;;;7.45;4.00;;;10.80;57.00;;;;;;5015703;28;20026;-79
2021/10/25 10:33:39;;;;;;;5.35;3.35;;;10.80;57.30;;;;;;5013355;28;20060;-79
2021/10/25 10:36:12;;;;;;;7.75;3.83;;;10.90;55.40;;;;;;5026976;28;20038;-80
2021/10/25 10:38:48;;;;;;;5.07;3.45;;;11.00;56.40;;;;;;5036030;28;20029;-79
2021/10/25 10:41:19;;;;;;;7.78;4.50;;;11.10;56.40;;;;;;5017985;28;20129;-79
2021/10/25 10:44:27;;;;;;;8.50;5.05;;;11.10;56.30;;;;;;5010704;28;20420;-79
2021/10/25 10:46:59;;;;;;;19.85;8.55;;;11.30;55.30;;;;;;4974370;28;20048;-79
2021/10/25 10:49:33;;;;;;;21.60;8.15;;;11.30;52.70;;;;;;5028487;28;20061;-80
2021/10/25 10:55:23;;;;;;;7.38;3.10;;;11.40;51.20;;;;;;5032744;28;20030;-79
2021/10/25 10:58:11;;;;;;;5.78;3.97;;;11.50;52.10;;;;;;5029059;28;20052;-80
2021/10/25 11:00:44;;;;;;;13.88;6.13;;;11.50;52.40;;;;;;5020062;28;20044;-79
2021/10/25 11:03:24;;;;;;;14.23;5.93;;;11.50;51.40;;;;;;5029875;28;20095;-79
2021/10/25 11:06:09;;;;;;;7.00;3.33;;;11.50;51.70;;;;;;5032392;28;20117;-78
2021/10/25 11:08:47;;;;;;;11.35;5.63;;;11.60;50.00;;;;;;5032360;28;20032;-79
2021/10/25 11:11:21;;;;;;;8.23;4.03;;;11.60;50.10;;;;;;5030922;28;20036;-79
2021/10/25 11:13:54;;;;;;;6.82;3.88;;;11.60;49.80;;;;;;5032246;28;20430;-78
2021/10/25 11:16:28;;;;;;;6.40;4.57;;;11.70;49.40;;;;;;5031802;28;20398;-78
2021/10/25 11:18:59;;;;;;;7.55;4.93;;;11.80;49.60;;;;;;5029614;28;20053;-78
2021/10/25 11:21:31;;;;;;;18.33;7.53;;;11.80;49.20;;;;;;5013366;28;20088;-78
2021/10/25 11:23:59;;;;;;;;;;;11.80;49.90;;;;;;5013395;28;20014;-78
2021/10/25 11:26:28;;;;;;;11.68;4.43;;;11.80;51.10;;;;;;5011604;28;20267;-79
2021/10/25 11:29:02;;;;;;;7.00;4.00;;;11.90;49.00;;;;;;5011801;28;20025;-79
2021/10/25 11:31:30;;;;;;;7.93;4.53;;;11.90;49.40;;;;;;5013435;28;20033;-79
2021/10/25 11:33:57;;;;;;;10.02;5.60;;;11.80;49.40;;;;;;5013720;28;20020;-79
2021/10/25 11:36:28;;;;;;;6.65;3.78;;;11.90;49.70;;;;;;5011845;28;20036;-79
2021/10/25 11:38:58;;;;;;;4.38;3.42;;;12.00;49.10;;;;;;5012608;28;20037;-80
2021/10/25 11:41:24;;;;;;;7.18;4.60;;;12.00;48.50;;;;;;5007735;28;20976;-81
2021/10/25 11:43:51;;;;;;;7.70;4.22;;;12.00;49.00;;;;;;5031974;28;20078;-80
2021/10/25 11:46:22;;;;;;;13.90;5.40;;;12.10;48.90;;;;;;5024963;28;20030;-77
2021/10/25 11:48:59;;;;;;;10.80;4.65;;;12.10;48.80;;;;;;5032604;28;20079;-77
2021/10/25 11:51:26;;;;;;;8.63;5.45;;;12.00;49.20;;;;;;5028934;28;20351;-76
2021/10/25 11:53:57;;;;;;;10.77;5.00;;;12.10;48.80;;;;;;5014048;28;20026;-76
2021/10/25 11:56:25;;;;;;;8.10;4.55;;;12.10;49.50;;;;;;5013401;28;20046;-76
2021/10/25 11:58:54;;;;;;;12.70;4.72;;;12.20;48.80;;;;;;5009504;28;20040;-77
2021/10/25 12:01:21;;;;;;;11.55;5.15;;;12.20;49.00;;;;;;5026012;28;20137;-77
2021/10/25 12:03:47;;;;;;;9.75;5.60;;;12.20;50.70;;;;;;5009962;28;20029;-76
2021/10/25 12:06:15;;;;;;;11.13;5.63;;;12.20;51.10;;;;;;5009449;28;20046;-77
2021/10/25 12:08:41;;;;;;;11.52;5.68;;;12.20;51.40;;;;;;5010555;28;20068;-76
2021/10/25 12:11:07;;;;;;;7.95;5.30;;;12.20;50.20;;;;;;5010941;28;21280;-77
2021/10/25 12:13:32;;;;;;;12.50;5.53;;;12.30;50.40;;;;;;5028511;28;20105;-77
2021/10/25 12:16:00;;;;;;;7.85;4.68;;;12.40;49.60;;;;;;5011680;28;20069;-76
2021/10/25 12:18:27;;;;;;;9.02;5.60;;;12.40;49.40;;;;;;5010842;28;20030;-77
2021/10/25 12:20:53;;;;;;;9.43;5.30;;;12.50;49.40;;;;;;5012111;28;20030;-77
2021/10/25 12:23:24;;;;;;;9.93;5.53;;;12.50;49.70;;;;;;5028312;28;20033;-77
2021/10/25 12:25:55;;;;;;;8.75;5.43;;;12.50;49.50;;;;;;5015653;28;20041;-76
2021/10/25 12:28:21;;;;;;;12.48;6.32;;;12.60;50.60;;;;;;5012436;28;20030;-77
2021/10/25 12:31:12;;;;;;;7.35;4.72;;;12.60;49.40;;;;;;5010785;28;20042;-77
2021/10/25 12:33:39;;;;;;;8.95;4.75;;;12.70;47.60;;;;;;5011198;28;20076;-77
2021/10/25 12:36:17;;;;;;;7.78;4.35;;;12.70;47.50;;;;;;5026007;28;20064;-77
2021/10/25 12:38:45;;;;;;;10.20;4.47;;;12.80;46.90;;;;;;5023929;28;20024;-77
2021/10/25 12:41:11;;;;;;;8.25;4.45;;;12.70;47.90;;;;;;5010008;28;20038;-76
2021/10/25 12:43:40;;;;;;;6.70;3.88;;;12.70;47.30;;;;;;5012879;28;20087;-76
2021/10/25 12:46:09;;;;;;;8.50;4.88;;;12.80;47.30;;;;;;5023083;28;20046;-77
2021/10/25 12:48:51;;;;;;;8.77;4.40;;;12.80;46.90;;;;;;5013995;28;20021;-77
2021/10/25 12:51:18;;;;;;;12.07;5.10;;;12.80;46.40;;;;;;5027005;28;20041;-77
2021/10/25 12:53:46;;;;;;;9.73;4.70;;;12.90;45.80;;;;;;5024020;28;20022;-77
2021/10/25 12:56:13;;;;;;;19.40;9.55;;;12.90;46.40;;;;;;5012133;28;20038;-76
2021/10/25 12:58:39;;;;;;;14.40;7.47;;;12.90;46.10;;;;;;5016699;28;20529;-77
2021/10/25 13:01:11;;;;;;;8.40;4.75;;;13.00;45.70;;;;;;5027624;28;20411;-77
2021/10/25 13:03:37;;;;;;;17.50;5.55;;;12.90;45.20;;;;;;5015108;28;20057;-76
2021/10/25 13:06:07;;;;;;;9.10;4.78;;;12.90;45.30;;;;;;5021637;28;20050;-77
2021/10/25 13:08:34;;;;;;;10.90;4.32;;;13.00;45.30;;;;;;5018636;28;20033;-76
2021/10/25 13:11:01;;;;;;;7.88;4.20;;;13.00;45.60;;;;;;5010438;28;20475;-76
2021/10/25 13:13:31;;;;;;;5.88;4.43;;;13.00;45.30;;;;;;5012051;28;20018;-74
2021/10/25 13:15:57;;;;;;;10.75;5.60;;;12.90;46.50;;;;;;5011578;28;20061;-76
2021/10/25 13:18:23;;;;;;;7.07;4.57;;;12.80;47.00;;;;;;5012932;28;20076;-76
2021/10/25 13:20:49;;;;;;;5.88;4.05;;;12.90;45.90;;;;;;5012191;28;20044;-77
2021/10/25 13:23:14;;;;;;;9.40;5.43;;;12.80;46.80;;;;;;5011101;28;20045;-77
2021/10/25 13:25:42;;;;;;;9.88;5.18;;;12.80;46.00;;;;;;5017620;28;20383;-76
2021/10/25 13:28:08;;;;;;;8.48;5.25;;;12.80;46.50;;;;;;5009251;28;20041;-77
2021/10/25 13:30:35;;;;;;;9.48;4.60;;;12.80;46.70;;;;;;5014953;28;20037;-76
2021/10/25 13:33:01;;;;;;;8.65;4.88;;;12.90;46.10;;;;;;5029905;28;20040;-77
2021/10/25 13:35:28;;;;;;;9.70;5.07;;;12.80;46.10;;;;;;5030073;28;20021;-76
2021/10/25 13:37:55;;;;;;;12.05;7.60;;;12.90;46.60;;;;;;5030004;28;20069;-76
2021/10/25 13:40:24;;;;;;;15.00;8.02;;;12.90;47.10;;;;;;5028984;28;20565;-76
2021/10/25 13:42:50;;;;;;;15.35;8.77;;;12.80;47.00;;;;;;5024722;28;20104;-77
2021/10/25 13:45:16;;;;;;;14.32;7.78;;;12.80;47.80;;;;;;5017933;28;20467;-76
2021/10/25 13:47:42;;;;;;;8.85;5.35;;;12.80;47.90;;;;;;5022900;28;20388;-77
2021/10/25 13:50:09;;;;;;;11.93;6.72;;;12.70;47.40;;;;;;5027093;28;20104;-77
2021/10/25 13:52:36;;;;;;;10.48;5.82;;;12.70;48.10;;;;;;5029947;28;20037;-76
2021/10/25 13:55:05;;;;;;;11.93;6.72;;;12.70;49.20;;;;;;5026461;28;20018;-76
2021/10/25 13:57:35;;;;;;;8.43;5.55;;;12.70;49.60;;;;;;5010610;28;20045;-76
2021/10/25 14:00:04;;;;;;;8.00;5.40;;;12.60;50.20;;;;;;5028948;28;20091;-77
2021/10/25 14:02:30;;;;;;;8.55;5.10;;;12.60;50.50;;;;;;5016800;28;20046;-76
2021/10/25 14:04:58;;;;;;;13.02;6.35;;;12.50;49.80;;;;;;5008150;28;20383;-76
2021/10/25 14:07:30;;;;;;;10.50;5.68;;;12.40;49.60;;;;;;5007698;28;20121;-77
2021/10/25 14:10:02;;;;;;;9.80;5.40;;;12.50;49.30;;;;;;5011227;28;20357;-76
2021/10/25 14:12:30;;;;;;;13.05;5.63;;;12.40;49.30;;;;;;5012154;28;20034;-76
2021/10/25 14:15:05;;;;;;;13.02;7.10;;;12.40;49.80;;;;;;5010316;28;20053;-76
2021/10/25 14:17:31;;;;;;;11.05;6.75;;;12.40;50.20;;;;;;5010413;28;20050;-77
2021/10/25 14:19:59;;;;;;;10.70;5.80;;;12.30;50.60;;;;;;5011229;28;20598;-77
2021/10/25 14:22:32;;;;;;;12.75;6.88;;;12.30;51.10;;;;;;5009387;28;20045;-78